createdAt,value
2022-08-01T00:00:11.622Z,100.00
2022-08-01T00:05:33.748Z,100.00
2022-08-01T00:10:55.362Z,100.00
2022-08-01T00:16:17.461Z,100.00
2022-08-01T00:21:39.118Z,100.00
2022-08-01T00:27:13.807Z,100.00
2022-08-01T00:32:50.630Z,100.00
2022-08-01T00:38:12.718Z,100.00
2022-08-01T00:43:34.902Z,100.00
2022-08-01T00:48:56.750Z,100.00
2022-08-01T00:54:22.537Z,100.00
2022-08-01T00:59:45.000Z,100.00
2022-08-01T01:05:10.567Z,100.00
2022-08-01T01:10:38.258Z,100.00
2022-08-01T01:16:21.240Z,100.00
2022-08-01T01:22:16.938Z,100.00
2022-08-01T01:28:11.547Z,100.00
2022-08-01T01:33:45.357Z,100.00
2022-08-01T01:39:10.779Z,100.00
2022-08-01T01:44:33.650Z,100.00
2022-08-01T01:50:01.980Z,100.00
2022-08-01T01:55:27.420Z,100.00
2022-08-01T02:00:54.130Z,100.00
2022-08-01T02:06:18.378Z,100.00
2022-08-01T02:11:59.154Z,100.00
2022-08-01T02:17:26.386Z,100.00
2022-08-01T02:22:59.549Z,100.00
2022-08-01T02:28:32.754Z,100.00
2022-08-01T02:34:07.399Z,100.00
2022-08-01T02:39:36.339Z,100.00
2022-08-01T02:45:09.922Z,100.00
2022-08-01T02:50:33.689Z,100.00
2022-08-01T02:55:57.220Z,100.00
2022-08-01T03:01:22.219Z,100.00
2022-08-01T03:06:45.139Z,100.00
2022-08-01T03:12:12.296Z,100.00
2022-08-01T03:17:37.148Z,100.00
2022-08-01T03:23:01.605Z,100.00
2022-08-01T03:28:24.313Z,100.00
2022-08-01T03:33:54.854Z,100.00
2022-08-01T03:45:24.831Z,100.00
2022-08-01T03:50:51.882Z,100.00
2022-08-01T04:02:44.129Z,100.00
2022-08-01T04:08:06.573Z,100.00
2022-08-01T04:13:29.255Z,100.00
2022-08-01T04:18:59.188Z,100.00
2022-08-01T04:24:27.343Z,100.00
2022-08-01T04:36:02.429Z,100.00
2022-08-01T04:41:27.000Z,100.00
2022-08-01T04:46:51.729Z,100.00
2022-08-01T04:52:18.035Z,100.00
2022-08-01T04:57:46.404Z,100.00
2022-08-01T05:03:08.891Z,100.00
2022-08-01T05:08:31.241Z,100.00
2022-08-01T05:13:53.128Z,100.00
2022-08-01T05:19:15.172Z,100.00
2022-08-01T05:24:41.678Z,100.00
2022-08-01T05:30:05.848Z,100.00
2022-08-01T05:35:48.741Z,100.00
2022-08-01T05:41:15.690Z,100.00
2022-08-01T05:46:40.829Z,89.79
2022-08-01T05:52:07.052Z,81.90
2022-08-01T05:57:29.800Z,78.96
2022-08-01T06:02:52.040Z,73.63
2022-08-01T06:08:14.046Z,73.44
2022-08-01T06:13:44.904Z,69.70
2022-08-01T06:19:11.172Z,70.39
2022-08-01T06:24:33.501Z,63.50
2022-08-01T06:29:55.316Z,63.97
2022-08-01T06:35:18.182Z,61.41
2022-08-01T06:40:40.560Z,64.25
2022-08-01T06:46:02.300Z,60.13
2022-08-01T06:51:24.224Z,62.21
2022-08-01T06:56:46.160Z,63.01
2022-08-01T07:02:09.702Z,68.13
2022-08-01T07:07:32.901Z,66.93
2022-08-01T07:12:55.322Z,65.43
2022-08-01T07:18:17.567Z,59.25
2022-08-01T07:23:39.932Z,61.59
2022-08-01T07:29:08.259Z,60.05
2022-08-01T07:34:30.232Z,63.06
2022-08-01T07:39:53.260Z,63.71
2022-08-01T07:45:16.566Z,61.05
2022-08-01T07:50:38.480Z,57.43
2022-08-01T07:56:01.381Z,59.68
2022-08-01T08:01:23.474Z,59.08
2022-08-01T08:06:46.180Z,57.68
2022-08-01T08:12:08.638Z,56.08
2022-08-01T08:17:36.103Z,57.55
2022-08-01T08:23:01.826Z,54.02
2022-08-01T08:28:27.920Z,56.09
2022-08-01T08:33:50.132Z,52.69
2022-08-01T08:39:12.422Z,54.74
2022-08-01T08:44:34.854Z,52.81
2022-08-01T08:49:59.548Z,54.21
2022-08-01T08:55:22.712Z,54.35
2022-08-01T09:00:45.069Z,52.74
2022-08-01T09:06:11.291Z,51.16
2022-08-01T09:11:34.893Z,50.02
2022-08-01T09:17:12.381Z,52.73
2022-08-01T09:22:35.171Z,50.40
2022-08-01T09:28:08.187Z,51.36
2022-08-01T09:33:50.670Z,51.33
2022-08-01T09:39:15.955Z,51.46
2022-08-01T09:44:55.234Z,50.76
2022-08-01T09:50:18.105Z,50.41
2022-08-01T09:55:41.299Z,51.14
2022-08-01T10:01:04.541Z,51.81
2022-08-01T10:06:27.741Z,51.60
2022-08-01T10:11:50.820Z,50.38
2022-08-01T10:17:18.435Z,50.93
2022-08-01T10:22:45.730Z,52.02
2022-08-01T10:28:17.965Z,52.63
2022-08-01T10:33:51.334Z,53.84
2022-08-01T10:39:20.057Z,53.96
2022-08-01T10:44:43.696Z,54.81
2022-08-01T10:50:26.700Z,56.11
2022-08-01T10:55:59.161Z,56.88
2022-08-01T11:01:27.795Z,57.60
2022-08-01T11:07:17.996Z,57.84
2022-08-01T11:12:43.927Z,58.70
2022-08-01T11:18:31.630Z,58.60
2022-08-01T11:23:55.669Z,58.10
2022-08-01T11:29:21.896Z,58.34
2022-08-01T11:34:59.431Z,57.88
2022-08-01T11:40:34.789Z,57.68
2022-08-01T11:45:57.840Z,59.04
2022-08-01T11:51:25.665Z,57.65
2022-08-01T11:56:48.747Z,56.98
2022-08-01T12:02:31.267Z,55.25
2022-08-01T12:07:54.707Z,50.66
2022-08-01T12:13:17.060Z,53.74
2022-08-01T12:18:43.900Z,52.81
2022-08-01T12:24:08.257Z,54.55
2022-08-01T12:29:46.301Z,53.13
2022-08-01T12:35:21.760Z,53.22
2022-08-01T12:40:53.199Z,51.44
2022-08-01T12:46:18.909Z,52.81
2022-08-01T12:51:42.914Z,49.82
2022-08-01T12:57:32.363Z,51.72
2022-08-01T13:03:13.293Z,50.78
2022-08-01T13:08:43.991Z,51.59
2022-08-01T13:14:07.630Z,49.30
2022-08-01T13:19:44.740Z,49.27
2022-08-01T13:25:33.243Z,50.49
2022-08-01T13:31:09.163Z,51.29
2022-08-01T13:36:32.862Z,52.22
2022-08-01T13:41:56.048Z,52.55
2022-08-01T13:47:17.941Z,53.27
2022-08-01T13:52:40.087Z,53.75
2022-08-01T13:58:03.263Z,53.44
2022-08-01T14:03:33.646Z,53.36
2022-08-01T14:08:55.659Z,52.98
2022-08-01T14:14:17.791Z,53.69
2022-08-01T14:19:43.344Z,54.08
2022-08-01T14:25:09.482Z,54.82
2022-08-01T14:30:33.316Z,54.92
2022-08-01T14:36:06.336Z,54.91
2022-08-01T14:41:45.545Z,54.10
2022-08-01T14:47:16.309Z,54.63
2022-08-01T14:52:50.124Z,54.67
2022-08-01T14:58:12.030Z,55.16
2022-08-01T15:03:40.401Z,54.99
2022-08-01T15:09:19.771Z,55.78
2022-08-01T15:14:56.982Z,56.35
2022-08-01T15:20:27.548Z,57.40
2022-08-01T15:25:59.663Z,58.02
2022-08-01T15:31:36.932Z,58.17
2022-08-01T15:37:03.975Z,58.48
2022-08-01T15:42:32.626Z,58.25
2022-08-01T15:47:58.761Z,58.96
2022-08-01T15:53:24.736Z,59.88
2022-08-01T15:58:53.476Z,60.20
2022-08-01T16:04:29.896Z,60.50
2022-08-01T16:09:56.807Z,60.46
2022-08-01T16:15:36.076Z,60.43
2022-08-01T16:21:17.333Z,60.12
2022-08-01T16:26:56.619Z,60.69
2022-08-01T16:38:14.831Z,61.85
2022-08-01T16:44:13.235Z,62.33
2022-08-01T16:49:39.113Z,63.17
2022-08-01T16:55:01.163Z,64.60
2022-08-01T17:00:28.117Z,65.87
2022-08-01T17:05:51.040Z,67.45
2022-08-01T17:11:13.542Z,68.22
2022-08-01T17:16:35.389Z,69.08
2022-08-01T17:21:57.720Z,69.75
2022-08-01T17:27:20.784Z,70.14
2022-08-01T17:32:45.681Z,70.93
2022-08-01T17:38:07.403Z,71.45
2022-08-01T17:43:30.152Z,72.60
2022-08-01T17:48:55.526Z,73.34
2022-08-01T17:54:18.006Z,73.99
2022-08-01T17:59:40.748Z,75.49
2022-08-01T18:05:09.486Z,76.48
2022-08-01T18:10:32.861Z,78.16
2022-08-01T18:15:54.964Z,78.62
2022-08-01T18:21:18.462Z,79.45
2022-08-01T18:26:40.662Z,80.39
2022-08-01T18:32:04.108Z,81.23
2022-08-01T18:37:27.509Z,82.27
2022-08-01T18:42:55.360Z,84.05
2022-08-01T18:48:20.796Z,84.78
2022-08-01T18:53:43.481Z,86.03
2022-08-01T18:59:09.854Z,86.80
2022-08-01T19:04:35.023Z,87.56
2022-08-01T19:09:57.702Z,88.28
2022-08-01T19:15:19.974Z,89.12
2022-08-01T19:20:43.482Z,89.88
2022-08-01T19:26:10.296Z,90.88
2022-08-01T19:31:33.239Z,91.90
2022-08-01T19:37:00.364Z,92.66
2022-08-01T19:42:25.214Z,93.07
2022-08-01T19:47:53.991Z,93.35
2022-08-01T19:53:24.591Z,94.23
2022-08-01T19:58:52.897Z,94.78
2022-08-01T20:04:23.060Z,95.56
2022-08-01T20:09:48.983Z,95.76
2022-08-01T20:15:17.315Z,96.23
2022-08-01T20:20:39.382Z,97.44
2022-08-01T20:26:01.299Z,97.89
2022-08-01T20:31:28.519Z,99.38
2022-08-01T20:36:59.062Z,100.00
2022-08-01T20:42:24.822Z,100.00
2022-08-01T20:47:51.523Z,100.00
2022-08-01T20:53:23.403Z,100.00
2022-08-01T20:59:39.589Z,100.00
2022-08-01T21:05:32.631Z,100.00
2022-08-01T21:11:41.341Z,100.00
2022-08-01T21:17:25.554Z,100.00
2022-08-01T21:23:15.083Z,100.00
2022-08-01T21:28:53.953Z,100.00
2022-08-01T21:34:32.796Z,100.00
2022-08-01T21:40:15.606Z,100.00
2022-08-01T21:45:57.535Z,100.00
2022-08-01T21:51:43.001Z,100.00
2022-08-01T21:57:24.054Z,100.00
2022-08-01T22:03:04.522Z,100.00
2022-08-01T22:08:34.483Z,100.00
2022-08-01T22:14:00.564Z,100.00
2022-08-01T22:19:32.482Z,100.00
2022-08-01T22:25:06.066Z,100.00
2022-08-01T22:30:28.460Z,100.00
2022-08-01T22:35:55.705Z,100.00
2022-08-01T22:41:26.853Z,100.00
2022-08-01T22:47:24.358Z,100.00
2022-08-01T22:58:51.884Z,100.00
2022-08-01T23:04:46.343Z,100.00
2022-08-01T23:10:30.891Z,100.00
2022-08-01T23:15:56.284Z,100.00
2022-08-01T23:28:03.834Z,100.00
2022-08-01T23:33:39.299Z,100.00
2022-08-01T23:39:09.193Z,100.00
2022-08-01T23:44:34.223Z,100.00
2022-08-01T23:49:56.616Z,100.00
2022-08-01T23:55:25.094Z,100.00
